Terminal Aerodrome Forecast
Issued by NWS Pittsburgh, PA

Current Version | Previous Version | Graphics & Text | Print | Product List | Glossary On
Versions: 1 2 3 4 5 6 7 8 9 10 11 12 13 14 15 16 17 18 19 20 21 22 23 24 25 26 27 28 29
409
FTUS41 KPBZ 271122
TAFPIT
TAF
KPIT 271122Z 2712/2818 16012G18KT P6SM BKN200
     FM272000 21009KT 5SM -SHRA VCTS BKN060CB
     FM280000 21008KT P6SM BKN050
     FM280700 26004KT P6SM BKN025
     FM281200 18004KT P6SM SCT025=

USA.gov is the U.S. government's official web portal to all federal, state and local government web resources and services.